Gonvick, Minnesota
Current Conditions -  °F | °C
As of 1:55 PM on Sunday 23 Nov 2014 (Local Time) from KFSE Reporting Station
Overcast Overcast  
Wind Chill: 31°   Ceiling: 2200
Heat Index: 36°   Visibility: 10mi
Dew Point: 34°   Wind: 6mph
Humidity: 93%   Direction: 220°SW
Pressure: 29.41"   Gusts: NA
Location:  47.74°N, 95.51°W
Report Text: KFSE 231955Z AUTO 22005KT 10SM BKN022 OVC030 02/01 A2941 RMK AO2
Loading
Personal Weather Stations






























Interactive Weather Map New forecast layout! Learn more

10-Day Weather Forecast

Advertisements
Track Severe Weather on mobile